sensor_id;sensor_type;location;lat;lon;timestamp;P1;durP1;ratioP1;P2;durP2;ratioP2
48911;SDS011;34722;52.108;5.044;2023-02-21T00:01:34;73.93;;;26.90;;
48911;SDS011;34722;52.108;5.044;2023-02-21T00:04:18;65.32;;;26.77;;
48911;SDS011;34722;52.108;5.044;2023-02-21T00:07:02;61.65;;;26.70;;
48911;SDS011;34722;52.108;5.044;2023-02-21T00:09:46;72.93;;;27.92;;
48911;SDS011;34722;52.108;5.044;2023-02-21T00:12:31;63.75;;;26.83;;
48911;SDS011;34722;52.108;5.044;2023-02-21T00:15:15;76.25;;;26.98;;
48911;SDS011;34722;52.108;5.044;2023-02-21T00:17:59;75.85;;;28.63;;
48911;SDS011;34722;52.108;5.044;2023-02-21T00:20:43;63.70;;;25.52;;
48911;SDS011;34722;52.108;5.044;2023-02-21T00:23:27;70.82;;;28.60;;
48911;SDS011;34722;52.108;5.044;2023-02-21T00:26:16;71.45;;;27.75;;
48911;SDS011;34722;52.108;5.044;2023-02-21T00:29:00;67.38;;;27.50;;
48911;SDS011;34722;52.108;5.044;2023-02-21T00:31:45;71.35;;;27.35;;
48911;SDS011;34722;52.108;5.044;2023-02-21T00:34:29;69.40;;;29.33;;
48911;SDS011;34722;52.108;5.044;2023-02-21T00:37:13;68.47;;;27.75;;
48911;SDS011;34722;52.108;5.044;2023-02-21T00:39:57;79.07;;;29.73;;
48911;SDS011;34722;52.108;5.044;2023-02-21T00:42:41;75.15;;;29.65;;
48911;SDS011;34722;52.108;5.044;2023-02-21T00:45:25;69.95;;;28.42;;
48911;SDS011;34722;52.108;5.044;2023-02-21T00:48:10;73.70;;;29.27;;
48911;SDS011;34722;52.108;5.044;2023-02-21T00:50:54;86.60;;;32.05;;
48911;SDS011;34722;52.108;5.044;2023-02-21T00:53:38;80.15;;;28.40;;
48911;SDS011;34722;52.108;5.044;2023-02-21T00:56:22;73.78;;;28.88;;
48911;SDS011;34722;52.108;5.044;2023-02-21T00:59:06;72.45;;;29.25;;
48911;SDS011;34722;52.108;5.044;2023-02-21T01:01:50;74.72;;;28.08;;
48911;SDS011;34722;52.108;5.044;2023-02-21T01:04:34;82.30;;;29.15;;
48911;SDS011;34722;52.108;5.044;2023-02-21T01:07:18;77.32;;;30.85;;
48911;SDS011;34722;52.108;5.044;2023-02-21T01:10:02;82.65;;;32.28;;
48911;SDS011;34722;52.108;5.044;2023-02-21T01:12:46;78.28;;;32.67;;
48911;SDS011;34722;52.108;5.044;2023-02-21T01:15:31;72.50;;;30.67;;
48911;SDS011;34722;52.108;5.044;2023-02-21T01:18:15;75.10;;;31.45;;
48911;SDS011;34722;52.108;5.044;2023-02-21T01:20:59;73.63;;;28.98;;
48911;SDS011;34722;52.108;5.044;2023-02-21T01:23:43;75.45;;;31.67;;
48911;SDS011;34722;52.108;5.044;2023-02-21T01:26:27;71.15;;;29.80;;
48911;SDS011;34722;52.108;5.044;2023-02-21T01:29:11;75.78;;;31.48;;
48911;SDS011;34722;52.108;5.044;2023-02-21T01:31:55;66.80;;;31.25;;
48911;SDS011;34722;52.108;5.044;2023-02-21T01:34:39;77.38;;;31.45;;
48911;SDS011;34722;52.108;5.044;2023-02-21T01:37:24;71.65;;;30.73;;
48911;SDS011;34722;52.108;5.044;2023-02-21T01:40:08;80.78;;;31.95;;
48911;SDS011;34722;52.108;5.044;2023-02-21T01:42:56;74.28;;;30.58;;
48911;SDS011;34722;52.108;5.044;2023-02-21T01:45:42;75.47;;;30.23;;
48911;SDS011;34722;52.108;5.044;2023-02-21T01:48:30;72.63;;;29.55;;
48911;SDS011;34722;52.108;5.044;2023-02-21T01:51:17;73.85;;;29.45;;
48911;SDS011;34722;52.108;5.044;2023-02-21T01:54:04;72.43;;;32.05;;
48911;SDS011;34722;52.108;5.044;2023-02-21T01:56:50;70.70;;;26.75;;
48911;SDS011;34722;52.108;5.044;2023-02-21T01:59:35;69.43;;;26.92;;
48911;SDS011;34722;52.108;5.044;2023-02-21T02:05:09;87.47;;;29.13;;
48911;SDS011;34722;52.108;5.044;2023-02-21T02:07:57;68.97;;;28.08;;
48911;SDS011;34722;52.108;5.044;2023-02-21T02:10:42;72.30;;;30.13;;
48911;SDS011;34722;52.108;5.044;2023-02-21T02:21:11;84.85;;;30.45;;
48911;SDS011;34722;52.108;5.044;2023-02-21T02:34:50;78.53;;;29.00;;
48911;SDS011;34722;52.108;5.044;2023-02-21T02:40:02;80.00;;;29.98;;
48911;SDS011;34722;52.108;5.044;2023-02-21T02:42:40;80.60;;;30.73;;
48911;SDS011;34722;52.108;5.044;2023-02-21T02:51:01;78.35;;;30.73;;
48911;SDS011;34722;52.108;5.044;2023-02-21T02:53:31;87.00;;;31.52;;
48911;SDS011;34722;52.108;5.044;2023-02-21T02:56:04;83.60;;;31.17;;
48911;SDS011;34722;52.108;5.044;2023-02-21T02:58:42;92.57;;;35.83;;
48911;SDS011;34722;52.108;5.044;2023-02-21T03:01:19;83.85;;;31.52;;
48911;SDS011;34722;52.108;5.044;2023-02-21T03:06:46;87.32;;;32.67;;
48911;SDS011;34722;52.108;5.044;2023-02-21T03:15:06;95.10;;;33.88;;
48911;SDS011;34722;52.108;5.044;2023-02-21T03:17:53;92.63;;;36.08;;
48911;SDS011;34722;52.108;5.044;2023-02-21T03:20:23;86.32;;;32.85;;
48911;SDS011;34722;52.108;5.044;2023-02-21T03:22:51;88.95;;;32.97;;
48911;SDS011;34722;52.108;5.044;2023-02-21T03:25:19;76.65;;;33.00;;
48911;SDS011;34722;52.108;5.044;2023-02-21T03:27:47;88.47;;;33.13;;
48911;SDS011;34722;52.108;5.044;2023-02-21T03:30:15;86.28;;;32.28;;
48911;SDS011;34722;52.108;5.044;2023-02-21T03:32:44;85.40;;;32.33;;
48911;SDS011;34722;52.108;5.044;2023-02-21T03:35:16;81.78;;;32.05;;
48911;SDS011;34722;52.108;5.044;2023-02-21T03:38:15;88.65;;;33.05;;
48911;SDS011;34722;52.108;5.044;2023-02-21T03:41:36;87.10;;;32.80;;
48911;SDS011;34722;52.108;5.044;2023-02-21T03:44:27;93.60;;;32.17;;
48911;SDS011;34722;52.108;5.044;2023-02-21T03:47:20;86.90;;;32.10;;
48911;SDS011;34722;52.108;5.044;2023-02-21T03:50:05;88.47;;;36.35;;
48911;SDS011;34722;52.108;5.044;2023-02-21T04:01:12;85.68;;;33.25;;
48911;SDS011;34722;52.108;5.044;2023-02-21T04:04:00;87.70;;;34.45;;
48911;SDS011;34722;52.108;5.044;2023-02-21T04:07:16;90.13;;;34.58;;
48911;SDS011;34722;52.108;5.044;2023-02-21T04:16:55;98.80;;;35.22;;
48911;SDS011;34722;52.108;5.044;2023-02-21T04:20:23;96.43;;;37.15;;
48911;SDS011;34722;52.108;5.044;2023-02-21T05:17:52;117.85;;;40.33;;
48911;SDS011;34722;52.108;5.044;2023-02-21T05:20:18;117.88;;;40.17;;
48911;SDS011;34722;52.108;5.044;2023-02-21T05:22:44;114.10;;;41.83;;
48911;SDS011;34722;52.108;5.044;2023-02-21T05:25:14;101.13;;;36.58;;
48911;SDS011;34722;52.108;5.044;2023-02-21T05:27:41;107.05;;;40.33;;
48911;SDS011;34722;52.108;5.044;2023-02-21T05:30:06;107.80;;;40.67;;
48911;SDS011;34722;52.108;5.044;2023-02-21T05:32:33;112.38;;;39.45;;
48911;SDS011;34722;52.108;5.044;2023-02-21T05:34:58;113.15;;;38.42;;
48911;SDS011;34722;52.108;5.044;2023-02-21T05:37:24;104.18;;;37.80;;
48911;SDS011;34722;52.108;5.044;2023-02-21T05:39:50;115.18;;;39.63;;
48911;SDS011;34722;52.108;5.044;2023-02-21T05:42:16;109.70;;;38.75;;
48911;SDS011;34722;52.108;5.044;2023-02-21T05:44:45;110.95;;;40.88;;
48911;SDS011;34722;52.108;5.044;2023-02-21T05:47:11;122.82;;;40.45;;
48911;SDS011;34722;52.108;5.044;2023-02-21T05:49:38;112.25;;;40.53;;
48911;SDS011;34722;52.108;5.044;2023-02-21T05:52:04;116.95;;;39.75;;
48911;SDS011;34722;52.108;5.044;2023-02-21T05:54:29;116.72;;;41.17;;
48911;SDS011;34722;52.108;5.044;2023-02-21T05:56:55;107.40;;;39.53;;
48911;SDS011;34722;52.108;5.044;2023-02-21T05:59:21;118.72;;;41.42;;
48911;SDS011;34722;52.108;5.044;2023-02-21T06:01:48;109.65;;;37.83;;
48911;SDS011;34722;52.108;5.044;2023-02-21T06:04:14;119.38;;;41.65;;
48911;SDS011;34722;52.108;5.044;2023-02-21T06:06:41;122.07;;;43.67;;
48911;SDS011;34722;52.108;5.044;2023-02-21T06:09:07;112.53;;;42.15;;
48911;SDS011;34722;52.108;5.044;2023-02-21T06:11:34;108.70;;;41.17;;
48911;SDS011;34722;52.108;5.044;2023-02-21T06:14:08;120.20;;;42.03;;
48911;SDS011;34722;52.108;5.044;2023-02-21T06:16:38;113.65;;;39.22;;
48911;SDS011;34722;52.108;5.044;2023-02-21T06:19:05;105.95;;;40.67;;
48911;SDS011;34722;52.108;5.044;2023-02-21T06:21:32;109.13;;;42.90;;
48911;SDS011;34722;52.108;5.044;2023-02-21T06:23:59;117.43;;;39.97;;
48911;SDS011;34722;52.108;5.044;2023-02-21T06:26:25;115.82;;;39.75;;
48911;SDS011;34722;52.108;5.044;2023-02-21T06:28:51;113.95;;;39.95;;
48911;SDS011;34722;52.108;5.044;2023-02-21T06:31:17;113.82;;;40.30;;
48911;SDS011;34722;52.108;5.044;2023-02-21T06:33:44;116.75;;;42.67;;
48911;SDS011;34722;52.108;5.044;2023-02-21T06:36:12;111.18;;;39.95;;
48911;SDS011;34722;52.108;5.044;2023-02-21T06:38:43;113.57;;;41.60;;
48911;SDS011;34722;52.108;5.044;2023-02-21T06:41:09;109.00;;;40.70;;
48911;SDS011;34722;52.108;5.044;2023-02-21T06:43:35;111.78;;;41.05;;
48911;SDS011;34722;52.108;5.044;2023-02-21T06:46:01;100.22;;;37.15;;
48911;SDS011;34722;52.108;5.044;2023-02-21T06:48:28;110.85;;;41.42;;
48911;SDS011;34722;52.108;5.044;2023-02-21T06:50:54;113.18;;;39.72;;
48911;SDS011;34722;52.108;5.044;2023-02-21T06:53:20;119.80;;;41.10;;
48911;SDS011;34722;52.108;5.044;2023-02-21T06:55:46;105.32;;;39.17;;
48911;SDS011;34722;52.108;5.044;2023-02-21T06:58:11;117.10;;;44.25;;
48911;SDS011;34722;52.108;5.044;2023-02-21T07:00:37;110.60;;;42.17;;
48911;SDS011;34722;52.108;5.044;2023-02-21T07:03:03;115.45;;;41.47;;
48911;SDS011;34722;52.108;5.044;2023-02-21T07:05:29;117.30;;;41.17;;
48911;SDS011;34722;52.108;5.044;2023-02-21T07:07:59;123.07;;;40.80;;
48911;SDS011;34722;52.108;5.044;2023-02-21T07:10:29;114.30;;;40.97;;
48911;SDS011;34722;52.108;5.044;2023-02-21T07:12:55;121.47;;;43.83;;
48911;SDS011;34722;52.108;5.044;2023-02-21T07:15:21;115.18;;;41.10;;
48911;SDS011;34722;52.108;5.044;2023-02-21T07:17:46;118.47;;;38.28;;
48911;SDS011;34722;52.108;5.044;2023-02-21T07:20:12;120.15;;;44.85;;
48911;SDS011;34722;52.108;5.044;2023-02-21T07:22:38;115.70;;;43.85;;
48911;SDS011;34722;52.108;5.044;2023-02-21T07:27:55;110.95;;;41.17;;
48911;SDS011;34722;52.108;5.044;2023-02-21T07:30:21;120.88;;;41.45;;
48911;SDS011;34722;52.108;5.044;2023-02-21T07:32:46;125.95;;;43.72;;
48911;SDS011;34722;52.108;5.044;2023-02-21T07:35:12;134.70;;;45.75;;
48911;SDS011;34722;52.108;5.044;2023-02-21T07:40:42;131.18;;;44.85;;
48911;SDS011;34722;52.108;5.044;2023-02-21T07:43:08;112.78;;;41.40;;
48911;SDS011;34722;52.108;5.044;2023-02-21T07:45:36;124.80;;;42.42;;
48911;SDS011;34722;52.108;5.044;2023-02-21T07:48:02;108.03;;;39.30;;
48911;SDS011;34722;52.108;5.044;2023-02-21T07:50:27;117.65;;;44.80;;
48911;SDS011;34722;52.108;5.044;2023-02-21T07:52:53;117.05;;;44.55;;
48911;SDS011;34722;52.108;5.044;2023-02-21T07:55:20;112.10;;;42.05;;
48911;SDS011;34722;52.108;5.044;2023-02-21T07:57:46;133.63;;;45.58;;
48911;SDS011;34722;52.108;5.044;2023-02-21T08:00:12;132.27;;;44.60;;
48911;SDS011;34722;52.108;5.044;2023-02-21T08:02:38;126.30;;;44.17;;
48911;SDS011;34722;52.108;5.044;2023-02-21T08:05:06;122.68;;;43.35;;
48911;SDS011;34722;52.108;5.044;2023-02-21T08:07:32;125.93;;;43.60;;
48911;SDS011;34722;52.108;5.044;2023-02-21T08:12:59;116.57;;;45.15;;
48911;SDS011;34722;52.108;5.044;2023-02-21T08:15:25;134.57;;;44.85;;
48911;SDS011;34722;52.108;5.044;2023-02-21T08:17:51;120.53;;;44.00;;
48911;SDS011;34722;52.108;5.044;2023-02-21T08:20:17;139.63;;;45.58;;
48911;SDS011;34722;52.108;5.044;2023-02-21T08:22:43;130.15;;;45.50;;
48911;SDS011;34722;52.108;5.044;2023-02-21T08:25:09;133.07;;;46.17;;
48911;SDS011;34722;52.108;5.044;2023-02-21T08:27:55;131.48;;;47.90;;
48911;SDS011;34722;52.108;5.044;2023-02-21T08:30:21;140.98;;;45.78;;
48911;SDS011;34722;52.108;5.044;2023-02-21T08:32:53;144.98;;;46.80;;
48911;SDS011;34722;52.108;5.044;2023-02-21T08:35:19;140.45;;;45.83;;
48911;SDS011;34722;52.108;5.044;2023-02-21T08:37:46;147.80;;;46.72;;
48911;SDS011;34722;52.108;5.044;2023-02-21T08:40:13;163.52;;;51.03;;
48911;SDS011;34722;52.108;5.044;2023-02-21T08:46:01;136.18;;;47.35;;
48911;SDS011;34722;52.108;5.044;2023-02-21T08:48:27;154.55;;;46.05;;
48911;SDS011;34722;52.108;5.044;2023-02-21T08:50:53;161.85;;;50.53;;
48911;SDS011;34722;52.108;5.044;2023-02-21T08:56:40;144.25;;;46.35;;
48911;SDS011;34722;52.108;5.044;2023-02-21T08:59:05;163.40;;;48.75;;
48911;SDS011;34722;52.108;5.044;2023-02-21T09:01:36;150.80;;;49.05;;
48911;SDS011;34722;52.108;5.044;2023-02-21T09:04:08;151.43;;;44.53;;
48911;SDS011;34722;52.108;5.044;2023-02-21T09:06:33;158.65;;;49.55;;
48911;SDS011;34722;52.108;5.044;2023-02-21T09:11:35;158.48;;;47.92;;
48911;SDS011;34722;52.108;5.044;2023-02-21T09:14:01;166.70;;;50.75;;
48911;SDS011;34722;52.108;5.044;2023-02-21T09:21:35;150.60;;;47.97;;
48911;SDS011;34722;52.108;5.044;2023-02-21T09:24:09;177.73;;;52.13;;
48911;SDS011;34722;52.108;5.044;2023-02-21T09:26:35;176.30;;;51.45;;
48911;SDS011;34722;52.108;5.044;2023-02-21T09:29:03;169.88;;;49.03;;
48911;SDS011;34722;52.108;5.044;2023-02-21T09:31:29;160.90;;;49.55;;
48911;SDS011;34722;52.108;5.044;2023-02-21T09:33:58;182.40;;;52.25;;
48911;SDS011;34722;52.108;5.044;2023-02-21T09:36:23;180.07;;;53.55;;
48911;SDS011;34722;52.108;5.044;2023-02-21T09:39:03;166.52;;;49.25;;
48911;SDS011;34722;52.108;5.044;2023-02-21T09:41:31;169.18;;;52.65;;
48911;SDS011;34722;52.108;5.044;2023-02-21T09:43:58;183.27;;;55.25;;
48911;SDS011;34722;52.108;5.044;2023-02-21T09:49:02;181.02;;;51.65;;
48911;SDS011;34722;52.108;5.044;2023-02-21T09:51:37;172.68;;;49.90;;
48911;SDS011;34722;52.108;5.044;2023-02-21T09:57:03;163.38;;;46.90;;
48911;SDS011;34722;52.108;5.044;2023-02-21T09:59:48;156.60;;;47.08;;
48911;SDS011;34722;52.108;5.044;2023-02-21T10:05:28;154.90;;;47.17;;
48911;SDS011;34722;52.108;5.044;2023-02-21T10:08:05;154.63;;;46.70;;
48911;SDS011;34722;52.108;5.044;2023-02-21T10:10:43;155.07;;;49.80;;
48911;SDS011;34722;52.108;5.044;2023-02-21T10:13:21;182.13;;;48.70;;
48911;SDS011;34722;52.108;5.044;2023-02-21T10:16:04;161.65;;;50.90;;
48911;SDS011;34722;52.108;5.044;2023-02-21T10:21:29;159.55;;;48.92;;
48911;SDS011;34722;52.108;5.044;2023-02-21T10:26:36;156.93;;;48.95;;
48911;SDS011;34722;52.108;5.044;2023-02-21T10:29:42;161.48;;;47.95;;
48911;SDS011;34722;52.108;5.044;2023-02-21T10:40:39;152.27;;;48.92;;
48911;SDS011;34722;52.108;5.044;2023-02-21T10:43:31;152.30;;;46.30;;
48911;SDS011;34722;52.108;5.044;2023-02-21T10:48:41;156.73;;;45.78;;
48911;SDS011;34722;52.108;5.044;2023-02-21T10:51:12;161.93;;;51.55;;
48911;SDS011;34722;52.108;5.044;2023-02-21T10:53:52;154.15;;;48.78;;
48911;SDS011;34722;52.108;5.044;2023-02-21T10:56:24;161.48;;;48.28;;
48911;SDS011;34722;52.108;5.044;2023-02-21T10:59:03;151.82;;;47.65;;
48911;SDS011;34722;52.108;5.044;2023-02-21T11:07:06;162.55;;;46.97;;
48911;SDS011;34722;52.108;5.044;2023-02-21T11:12:26;166.10;;;50.88;;
48911;SDS011;34722;52.108;5.044;2023-02-21T11:21:18;158.48;;;49.60;;
48911;SDS011;34722;52.108;5.044;2023-02-21T11:23:54;183.07;;;49.25;;
48911;SDS011;34722;52.108;5.044;2023-02-21T11:26:49;159.82;;;46.65;;
48911;SDS011;34722;52.108;5.044;2023-02-21T11:29:18;158.63;;;47.25;;
48911;SDS011;34722;52.108;5.044;2023-02-21T11:31:48;168.15;;;47.97;;
48911;SDS011;34722;52.108;5.044;2023-02-21T11:34:15;181.55;;;48.83;;
48911;SDS011;34722;52.108;5.044;2023-02-21T11:36:44;163.98;;;47.65;;
48911;SDS011;34722;52.108;5.044;2023-02-21T11:42:00;161.18;;;45.50;;
48911;SDS011;34722;52.108;5.044;2023-02-21T11:44:33;160.25;;;47.50;;
48911;SDS011;34722;52.108;5.044;2023-02-21T11:47:21;160.63;;;47.97;;
48911;SDS011;34722;52.108;5.044;2023-02-21T11:52:31;146.68;;;46.95;;
48911;SDS011;34722;52.108;5.044;2023-02-21T11:55:03;144.68;;;45.53;;
48911;SDS011;34722;52.108;5.044;2023-02-21T11:57:43;144.50;;;43.72;;
48911;SDS011;34722;52.108;5.044;2023-02-21T12:00:48;134.90;;;39.70;;
48911;SDS011;34722;52.108;5.044;2023-02-21T12:06:21;131.10;;;44.78;;
48911;SDS011;34722;52.108;5.044;2023-02-21T12:11:52;126.60;;;41.53;;
48911;SDS011;34722;52.108;5.044;2023-02-21T12:32:22;99.78;;;31.98;;
48911;SDS011;34722;52.108;5.044;2023-02-21T12:49:26;79.15;;;27.50;;
48911;SDS011;34722;52.108;5.044;2023-02-21T12:51:59;72.82;;;27.40;;
48911;SDS011;34722;52.108;5.044;2023-02-21T12:54:48;68.07;;;25.40;;
48911;SDS011;34722;52.108;5.044;2023-02-21T13:14:25;54.80;;;18.73;;
48911;SDS011;34722;52.108;5.044;2023-02-21T13:16:57;61.30;;;22.40;;
48911;SDS011;34722;52.108;5.044;2023-02-21T13:22:45;62.72;;;22.48;;
48911;SDS011;34722;52.108;5.044;2023-02-21T13:28:25;72.03;;;22.08;;
48911;SDS011;34722;52.108;5.044;2023-02-21T13:30:57;67.15;;;22.63;;
48911;SDS011;34722;52.108;5.044;2023-02-21T13:39:12;57.17;;;21.23;;
48911;SDS011;34722;52.108;5.044;2023-02-21T13:41:43;58.13;;;22.30;;
48911;SDS011;34722;52.108;5.044;2023-02-21T13:44:21;49.10;;;20.08;;
48911;SDS011;34722;52.108;5.044;2023-02-21T13:46:59;44.07;;;17.40;;
48911;SDS011;34722;52.108;5.044;2023-02-21T13:57:42;29.40;;;12.35;;
48911;SDS011;34722;52.108;5.044;2023-02-21T14:02:55;26.90;;;12.32;;
48911;SDS011;34722;52.108;5.044;2023-02-21T14:05:21;33.13;;;13.20;;
48911;SDS011;34722;52.108;5.044;2023-02-21T14:07:55;27.20;;;11.85;;
48911;SDS011;34722;52.108;5.044;2023-02-21T14:10:36;27.48;;;12.00;;
48911;SDS011;34722;52.108;5.044;2023-02-21T14:18:17;23.98;;;10.23;;
48911;SDS011;34722;52.108;5.044;2023-02-21T14:20:54;29.48;;;12.18;;
48911;SDS011;34722;52.108;5.044;2023-02-21T14:23:23;24.98;;;12.55;;
48911;SDS011;34722;52.108;5.044;2023-02-21T14:26:00;26.10;;;10.10;;
48911;SDS011;34722;52.108;5.044;2023-02-21T14:34:10;25.92;;;12.25;;
48911;SDS011;34722;52.108;5.044;2023-02-21T14:36:37;21.95;;;9.60;;
48911;SDS011;34722;52.108;5.044;2023-02-21T14:39:04;23.40;;;10.27;;
48911;SDS011;34722;52.108;5.044;2023-02-21T14:44:24;20.42;;;9.15;;
48911;SDS011;34722;52.108;5.044;2023-02-21T14:50:20;21.00;;;9.95;;
48911;SDS011;34722;52.108;5.044;2023-02-21T15:02:21;25.67;;;10.57;;
48911;SDS011;34722;52.108;5.044;2023-02-21T15:09:43;18.88;;;8.88;;
48911;SDS011;34722;52.108;5.044;2023-02-21T15:12:49;27.67;;;10.38;;
48911;SDS011;34722;52.108;5.044;2023-02-21T15:15:19;21.48;;;11.60;;
48911;SDS011;34722;52.108;5.044;2023-02-21T15:20:24;19.67;;;9.05;;
48911;SDS011;34722;52.108;5.044;2023-02-21T15:22:58;26.35;;;8.95;;
48911;SDS011;34722;52.108;5.044;2023-02-21T15:25:26;20.23;;;9.13;;
48911;SDS011;34722;52.108;5.044;2023-02-21T15:27:53;20.75;;;8.90;;
48911;SDS011;34722;52.108;5.044;2023-02-21T15:30:25;22.88;;;10.27;;
48911;SDS011;34722;52.108;5.044;2023-02-21T15:35:22;22.60;;;9.38;;
48911;SDS011;34722;52.108;5.044;2023-02-21T15:37:53;23.65;;;10.80;;
48911;SDS011;34722;52.108;5.044;2023-02-21T15:40:22;24.92;;;10.00;;
48911;SDS011;34722;52.108;5.044;2023-02-21T15:42:50;24.73;;;9.85;;
48911;SDS011;34722;52.108;5.044;2023-02-21T15:45:24;22.10;;;9.40;;
48911;SDS011;34722;52.108;5.044;2023-02-21T15:47:55;18.27;;;8.23;;
48911;SDS011;34722;52.108;5.044;2023-02-21T15:52:48;18.80;;;8.45;;
48911;SDS011;34722;52.108;5.044;2023-02-21T16:00:31;22.20;;;9.02;;
48911;SDS011;34722;52.108;5.044;2023-02-21T16:19:49;22.35;;;11.52;;
48911;SDS011;34722;52.108;5.044;2023-02-21T16:22:27;25.23;;;12.02;;
48911;SDS011;34722;52.108;5.044;2023-02-21T16:27:32;25.67;;;12.13;;
48911;SDS011;34722;52.108;5.044;2023-02-21T16:29:57;28.45;;;11.30;;
48911;SDS011;34722;52.108;5.044;2023-02-21T16:32:23;26.42;;;12.85;;
48911;SDS011;34722;52.108;5.044;2023-02-21T16:34:49;31.45;;;12.77;;
48911;SDS011;34722;52.108;5.044;2023-02-21T16:37:19;28.80;;;13.75;;
48911;SDS011;34722;52.108;5.044;2023-02-21T16:39:45;28.40;;;12.93;;
48911;SDS011;34722;52.108;5.044;2023-02-21T16:42:11;31.88;;;14.93;;
48911;SDS011;34722;52.108;5.044;2023-02-21T16:44:37;34.03;;;15.88;;
48911;SDS011;34722;52.108;5.044;2023-02-21T16:47:18;33.13;;;15.52;;
48911;SDS011;34722;52.108;5.044;2023-02-21T16:49:48;37.30;;;15.68;;
48911;SDS011;34722;52.108;5.044;2023-02-21T16:52:15;45.30;;;15.15;;
48911;SDS011;34722;52.108;5.044;2023-02-21T16:54:41;45.42;;;16.05;;
48911;SDS011;34722;52.108;5.044;2023-02-21T16:57:08;40.25;;;16.08;;
48911;SDS011;34722;52.108;5.044;2023-02-21T16:59:35;42.25;;;16.83;;
48911;SDS011;34722;52.108;5.044;2023-02-21T17:02:01;42.55;;;16.02;;
48911;SDS011;34722;52.108;5.044;2023-02-21T17:04:28;37.08;;;16.38;;
48911;SDS011;34722;52.108;5.044;2023-02-21T17:06:58;42.78;;;17.42;;
48911;SDS011;34722;52.108;5.044;2023-02-21T17:09:27;41.35;;;15.88;;
48911;SDS011;34722;52.108;5.044;2023-02-21T17:11:54;48.80;;;17.13;;
48911;SDS011;34722;52.108;5.044;2023-02-21T17:14:21;46.95;;;16.00;;
48911;SDS011;34722;52.108;5.044;2023-02-21T17:16:47;44.65;;;16.88;;
48911;SDS011;34722;52.108;5.044;2023-02-21T17:19:16;42.10;;;18.05;;
48911;SDS011;34722;52.108;5.044;2023-02-21T17:21:45;45.38;;;16.63;;
48911;SDS011;34722;52.108;5.044;2023-02-21T17:24:11;51.85;;;16.20;;
48911;SDS011;34722;52.108;5.044;2023-02-21T17:26:38;47.85;;;16.13;;
48911;SDS011;34722;52.108;5.044;2023-02-21T17:29:04;42.72;;;16.73;;
48911;SDS011;34722;52.108;5.044;2023-02-21T17:31:31;51.33;;;17.95;;
48911;SDS011;34722;52.108;5.044;2023-02-21T17:33:57;43.22;;;18.23;;
48911;SDS011;34722;52.108;5.044;2023-02-21T17:36:23;47.20;;;16.40;;
48911;SDS011;34722;52.108;5.044;2023-02-21T17:38:50;52.58;;;18.15;;
48911;SDS011;34722;52.108;5.044;2023-02-21T17:41:16;48.25;;;16.13;;
48911;SDS011;34722;52.108;5.044;2023-02-21T17:43:43;51.70;;;18.85;;
48911;SDS011;34722;52.108;5.044;2023-02-21T17:46:10;49.75;;;16.92;;
48911;SDS011;34722;52.108;5.044;2023-02-21T17:48:37;51.05;;;19.98;;
48911;SDS011;34722;52.108;5.044;2023-02-21T17:51:04;54.08;;;18.65;;
48911;SDS011;34722;52.108;5.044;2023-02-21T17:53:30;42.28;;;16.40;;
48911;SDS011;34722;52.108;5.044;2023-02-21T17:55:56;51.67;;;18.73;;
48911;SDS011;34722;52.108;5.044;2023-02-21T17:58:24;45.75;;;18.00;;
48911;SDS011;34722;52.108;5.044;2023-02-21T18:00:50;45.88;;;15.77;;
48911;SDS011;34722;52.108;5.044;2023-02-21T18:03:19;56.30;;;19.23;;
48911;SDS011;34722;52.108;5.044;2023-02-21T18:05:45;45.20;;;17.33;;
48911;SDS011;34722;52.108;5.044;2023-02-21T18:08:11;50.50;;;17.60;;
48911;SDS011;34722;52.108;5.044;2023-02-21T18:10:36;50.42;;;18.00;;
48911;SDS011;34722;52.108;5.044;2023-02-21T18:13:02;52.35;;;17.48;;
48911;SDS011;34722;52.108;5.044;2023-02-21T18:15:28;46.70;;;19.10;;
48911;SDS011;34722;52.108;5.044;2023-02-21T18:17:55;47.72;;;17.95;;
48911;SDS011;34722;52.108;5.044;2023-02-21T18:20:25;41.47;;;15.52;;
48911;SDS011;34722;52.108;5.044;2023-02-21T18:22:51;47.60;;;16.60;;
48911;SDS011;34722;52.108;5.044;2023-02-21T18:25:17;50.15;;;16.92;;
48911;SDS011;34722;52.108;5.044;2023-02-21T18:28:00;49.88;;;16.50;;
48911;SDS011;34722;52.108;5.044;2023-02-21T18:30:26;44.67;;;16.90;;
48911;SDS011;34722;52.108;5.044;2023-02-21T18:32:58;41.25;;;14.77;;
48911;SDS011;34722;52.108;5.044;2023-02-21T18:35:24;43.05;;;16.25;;
48911;SDS011;34722;52.108;5.044;2023-02-21T18:37:49;38.75;;;15.15;;
48911;SDS011;34722;52.108;5.044;2023-02-21T18:40:15;41.90;;;17.23;;
48911;SDS011;34722;52.108;5.044;2023-02-21T18:42:42;41.97;;;16.33;;
48911;SDS011;34722;52.108;5.044;2023-02-21T18:45:08;39.67;;;16.35;;
48911;SDS011;34722;52.108;5.044;2023-02-21T18:47:35;43.85;;;14.98;;
48911;SDS011;34722;52.108;5.044;2023-02-21T18:50:01;40.17;;;14.75;;
48911;SDS011;34722;52.108;5.044;2023-02-21T18:52:27;41.75;;;15.40;;
48911;SDS011;34722;52.108;5.044;2023-02-21T18:54:53;36.83;;;14.68;;
48911;SDS011;34722;52.108;5.044;2023-02-21T18:57:21;37.65;;;13.73;;
48911;SDS011;34722;52.108;5.044;2023-02-21T18:59:47;36.65;;;14.25;;
48911;SDS011;34722;52.108;5.044;2023-02-21T19:02:14;41.70;;;16.35;;
48911;SDS011;34722;52.108;5.044;2023-02-21T19:04:41;43.47;;;17.02;;
48911;SDS011;34722;52.108;5.044;2023-02-21T19:07:08;43.17;;;16.90;;
48911;SDS011;34722;52.108;5.044;2023-02-21T19:09:37;50.95;;;18.50;;
48911;SDS011;34722;52.108;5.044;2023-02-21T19:12:03;48.22;;;17.10;;
48911;SDS011;34722;52.108;5.044;2023-02-21T19:14:31;47.10;;;16.77;;
48911;SDS011;34722;52.108;5.044;2023-02-21T19:16:57;54.17;;;17.85;;
48911;SDS011;34722;52.108;5.044;2023-02-21T19:19:23;50.08;;;19.20;;
48911;SDS011;34722;52.108;5.044;2023-02-21T19:21:49;45.47;;;17.60;;
48911;SDS011;34722;52.108;5.044;2023-02-21T19:24:14;45.95;;;17.92;;
48911;SDS011;34722;52.108;5.044;2023-02-21T19:26:44;51.40;;;17.98;;
48911;SDS011;34722;52.108;5.044;2023-02-21T19:31:55;56.63;;;19.48;;
48911;SDS011;34722;52.108;5.044;2023-02-21T19:34:36;60.67;;;21.52;;
48911;SDS011;34722;52.108;5.044;2023-02-21T19:37:11;60.88;;;22.63;;
48911;SDS011;34722;52.108;5.044;2023-02-21T19:42:29;69.57;;;25.10;;
48911;SDS011;34722;52.108;5.044;2023-02-21T19:47:30;71.93;;;23.52;;
48911;SDS011;34722;52.108;5.044;2023-02-21T19:49:56;72.47;;;23.45;;
48911;SDS011;34722;52.108;5.044;2023-02-21T19:52:21;78.15;;;24.17;;
48911;SDS011;34722;52.108;5.044;2023-02-21T19:54:47;69.55;;;27.38;;
48911;SDS011;34722;52.108;5.044;2023-02-21T19:57:19;77.53;;;23.88;;
48911;SDS011;34722;52.108;5.044;2023-02-21T20:03:00;77.93;;;25.20;;
48911;SDS011;34722;52.108;5.044;2023-02-21T20:05:27;82.18;;;25.27;;
48911;SDS011;34722;52.108;5.044;2023-02-21T20:07:59;84.75;;;26.50;;
48911;SDS011;34722;52.108;5.044;2023-02-21T20:10:24;73.97;;;26.05;;
48911;SDS011;34722;52.108;5.044;2023-02-21T20:12:54;91.35;;;28.98;;
48911;SDS011;34722;52.108;5.044;2023-02-21T20:21:18;90.78;;;27.20;;
48911;SDS011;34722;52.108;5.044;2023-02-21T20:24:22;95.60;;;27.83;;